createdAt,value
2023-05-04T00:02:18.935Z,8.83
2023-05-04T00:05:02.311Z,9.20
2023-05-04T00:07:30.452Z,8.07
2023-05-04T00:10:00.715Z,9.60
2023-05-04T00:12:29.334Z,10.57
2023-05-04T00:14:57.418Z,12.27
2023-05-04T00:17:25.478Z,12.97
2023-05-04T00:19:54.857Z,12.60
2023-05-04T00:22:22.901Z,13.67
2023-05-04T00:24:50.961Z,14.13
2023-05-04T00:27:19.061Z,13.97
2023-05-04T00:29:47.067Z,13.57
2023-05-04T00:32:15.065Z,13.23
2023-05-04T00:34:43.043Z,14.20
2023-05-04T00:37:12.309Z,13.53
2023-05-04T00:39:40.638Z,14.67
2023-05-04T00:42:09.013Z,13.43
2023-05-04T00:44:37.055Z,12.57
2023-05-04T00:47:05.206Z,12.73
2023-05-04T00:49:33.218Z,12.53
2023-05-04T00:52:03.969Z,12.17
2023-05-04T00:54:34.086Z,11.33
2023-05-04T00:57:02.434Z,10.53
2023-05-04T00:59:30.424Z,10.27
2023-05-04T01:01:58.413Z,9.63
2023-05-04T01:04:26.800Z,10.33
2023-05-04T01:07:01.478Z,9.83
2023-05-04T01:09:37.068Z,8.77
2023-05-04T01:12:08.727Z,9.37
2023-05-04T01:14:37.280Z,9.30
2023-05-04T01:17:07.317Z,9.73
2023-05-04T01:19:35.713Z,10.40
2023-05-04T01:22:07.159Z,9.73
2023-05-04T01:24:35.501Z,9.30
2023-05-04T01:27:06.669Z,9.13
2023-05-04T01:29:39.828Z,9.37
2023-05-04T01:32:09.003Z,9.30
2023-05-04T01:34:38.705Z,9.77
2023-05-04T01:37:08.464Z,8.97
2023-05-04T01:39:37.368Z,8.97
2023-05-04T01:42:07.295Z,9.10
2023-05-04T01:44:35.332Z,8.07
2023-05-04T01:47:03.604Z,7.30
2023-05-04T01:49:33.063Z,7.00
2023-05-04T01:52:01.046Z,7.10
2023-05-04T01:54:30.396Z,6.97
2023-05-04T01:56:58.788Z,7.10
2023-05-04T01:59:26.998Z,7.33
2023-05-04T02:01:54.995Z,7.30
2023-05-04T02:04:23.159Z,7.20
2023-05-04T02:06:51.249Z,6.90
2023-05-04T02:09:19.351Z,7.13
2023-05-04T02:11:48.680Z,7.53
2023-05-04T02:14:16.641Z,7.50
2023-05-04T02:16:44.625Z,7.47
2023-05-04T02:19:13.251Z,8.77
2023-05-04T02:21:42.328Z,9.13
2023-05-04T02:24:10.390Z,9.40
2023-05-04T02:26:38.392Z,8.97
2023-05-04T02:29:07.853Z,9.57
2023-05-04T02:31:36.320Z,9.63
2023-05-04T02:34:04.497Z,10.13
2023-05-04T02:36:32.898Z,9.73
2023-05-04T02:39:01.316Z,9.43
2023-05-04T02:41:29.310Z,9.10
2023-05-04T02:43:57.418Z,8.97
2023-05-04T02:46:27.408Z,9.10
2023-05-04T02:48:55.444Z,9.43
2023-05-04T02:51:24.574Z,10.10
2023-05-04T02:53:52.712Z,9.93
2023-05-04T02:56:20.704Z,9.20
2023-05-04T02:58:48.858Z,9.13
2023-05-04T03:01:16.907Z,9.00
2023-05-04T03:03:46.341Z,9.40
2023-05-04T03:06:14.366Z,9.07
2023-05-04T03:08:42.611Z,8.53
2023-05-04T03:11:10.737Z,8.07
2023-05-04T03:13:38.827Z,8.93
2023-05-04T03:16:07.070Z,8.70
2023-05-04T03:21:23.154Z,8.33
2023-05-04T03:23:51.562Z,7.47
2023-05-04T03:26:19.782Z,8.30
2023-05-04T03:28:47.843Z,8.37
2023-05-04T03:31:15.859Z,9.17
2023-05-04T03:33:44.200Z,8.33
2023-05-04T03:36:12.312Z,8.37
2023-05-04T03:38:43.591Z,8.23
2023-05-04T03:41:11.697Z,8.53
2023-05-04T03:43:40.415Z,8.30
2023-05-04T03:46:08.436Z,7.63
2023-05-04T03:48:36.586Z,8.23
2023-05-04T03:51:07.093Z,8.57
2023-05-04T03:53:35.803Z,9.70
2023-05-04T03:56:05.755Z,10.53
2023-05-04T03:58:33.789Z,11.60
2023-05-04T04:01:04.635Z,11.97
2023-05-04T04:03:33.077Z,11.93
2023-05-04T04:06:01.816Z,12.20
2023-05-04T04:08:29.889Z,11.90
2023-05-04T04:10:57.899Z,11.17
2023-05-04T04:13:27.934Z,11.27
2023-05-04T04:15:56.083Z,10.07
2023-05-04T04:18:24.563Z,10.40
2023-05-04T04:20:52.778Z,10.20
2023-05-04T04:23:21.670Z,9.13
2023-05-04T04:25:49.745Z,9.50
2023-05-04T04:28:17.944Z,9.00
2023-05-04T04:30:47.278Z,8.93
2023-05-04T04:33:16.447Z,10.00
2023-05-04T04:35:44.422Z,9.73
2023-05-04T04:38:12.322Z,9.43
2023-05-04T04:40:40.260Z,10.73
2023-05-04T04:43:08.386Z,10.37
2023-05-04T04:45:36.527Z,9.47
2023-05-04T04:48:06.143Z,10.50
2023-05-04T04:50:34.260Z,10.63
2023-05-04T04:53:02.222Z,11.47
2023-05-04T04:55:30.327Z,12.17
2023-05-04T04:57:58.353Z,10.57
2023-05-04T05:00:26.551Z,10.63
2023-05-04T05:02:55.116Z,11.77
2023-05-04T05:05:24.457Z,11.97
2023-05-04T05:07:52.953Z,11.73
2023-05-04T05:10:22.108Z,11.83
2023-05-04T05:12:50.947Z,13.07
2023-05-04T05:15:19.127Z,12.97
2023-05-04T05:17:47.154Z,14.50
2023-05-04T05:20:15.357Z,14.17
2023-05-04T05:22:44.754Z,13.77
2023-05-04T05:25:13.283Z,14.37
2023-05-04T05:27:41.427Z,13.73
2023-05-04T05:30:09.734Z,13.77
2023-05-04T05:32:37.857Z,14.53
2023-05-04T05:35:06.893Z,13.37
2023-05-04T05:37:34.906Z,13.87
2023-05-04T05:40:07.833Z,13.17
2023-05-04T05:42:36.027Z,14.43
2023-05-04T05:45:04.681Z,15.43
2023-05-04T05:47:32.863Z,16.13
2023-05-04T05:50:00.905Z,15.77
2023-05-04T05:52:28.940Z,15.80
2023-05-04T05:54:56.920Z,14.93
2023-05-04T05:57:26.293Z,15.67
2023-05-04T05:59:54.587Z,15.63
2023-05-04T06:02:22.771Z,14.67
2023-05-04T06:04:51.061Z,13.10
2023-05-04T06:07:19.461Z,13.13
2023-05-04T06:09:47.438Z,12.17
2023-05-04T06:12:17.116Z,11.27
2023-05-04T06:14:47.939Z,10.40
2023-05-04T06:17:17.385Z,10.47
2023-05-04T06:19:45.952Z,11.23
2023-05-04T06:22:14.794Z,10.73
2023-05-04T06:24:43.097Z,8.40
2023-05-04T06:27:12.431Z,8.80
2023-05-04T06:29:41.440Z,8.33
2023-05-04T06:32:11.130Z,9.70
2023-05-04T06:34:39.308Z,8.23
2023-05-04T06:37:07.294Z,7.27
2023-05-04T06:39:35.312Z,6.70
2023-05-04T06:42:03.362Z,7.03
2023-05-04T06:44:38.439Z,6.40
2023-05-04T06:47:07.584Z,6.07
2023-05-04T06:49:37.424Z,6.30
2023-05-04T06:52:05.904Z,5.63
2023-05-04T06:54:33.944Z,5.20
2023-05-04T06:57:04.414Z,5.70
2023-05-04T06:59:32.531Z,5.47
2023-05-04T07:02:00.552Z,5.70
2023-05-04T07:04:28.654Z,5.00
2023-05-04T07:06:58.057Z,4.73
2023-05-04T07:09:26.239Z,3.70
2023-05-04T07:11:54.281Z,4.47
2023-05-04T07:14:22.486Z,3.90
2023-05-04T07:16:50.413Z,3.50
2023-05-04T07:19:18.370Z,3.60
2023-05-04T07:21:47.593Z,3.73
2023-05-04T07:24:16.920Z,3.27
2023-05-04T07:26:44.920Z,3.67
2023-05-04T07:29:12.918Z,3.00
2023-05-04T07:31:40.970Z,3.40
2023-05-04T07:34:08.937Z,3.40
2023-05-04T07:36:37.004Z,3.57
2023-05-04T07:39:05.065Z,3.77
2023-05-04T07:41:34.442Z,2.90
2023-05-04T07:44:05.703Z,2.77
2023-05-04T07:46:34.102Z,3.43
2023-05-04T07:49:03.290Z,3.37
2023-05-04T07:51:31.928Z,2.83
2023-05-04T07:54:00.587Z,2.70
2023-05-04T07:56:28.781Z,2.80
2023-05-04T07:58:58.171Z,2.57
2023-05-04T08:01:26.257Z,2.20
2023-05-04T08:03:55.315Z,2.00
2023-05-04T08:06:25.741Z,2.10
2023-05-04T08:08:56.026Z,1.57
2023-05-04T08:11:24.092Z,1.30
2023-05-04T08:13:52.324Z,1.60
2023-05-04T08:16:21.746Z,1.60
2023-05-04T08:18:49.757Z,1.63
2023-05-04T08:21:17.767Z,1.60
2023-05-04T08:23:45.768Z,1.50
2023-05-04T08:26:13.837Z,1.40
2023-05-04T08:28:42.560Z,1.40
2023-05-04T08:31:10.941Z,1.30
2023-05-04T08:33:46.610Z,1.83
2023-05-04T08:36:23.640Z,1.50
2023-05-04T08:38:58.569Z,1.57
2023-05-04T08:41:29.177Z,1.73
2023-05-04T08:43:57.472Z,1.80
2023-05-04T08:46:27.813Z,2.00
2023-05-04T08:49:00.173Z,2.30
2023-05-04T08:51:28.393Z,2.40
2023-05-04T08:53:57.239Z,2.10
2023-05-04T08:56:25.848Z,2.33
2023-05-04T08:59:07.704Z,1.93
2023-05-04T09:01:38.952Z,2.10
2023-05-04T09:04:08.596Z,2.00
2023-05-04T09:06:36.724Z,2.07
2023-05-04T09:09:04.961Z,1.97
2023-05-04T09:11:32.882Z,1.87
2023-05-04T09:14:00.835Z,1.83
2023-05-04T09:16:35.543Z,2.30
2023-05-04T09:19:04.522Z,1.90
2023-05-04T09:21:34.649Z,2.10
2023-05-04T09:24:02.604Z,2.37
2023-05-04T09:26:31.844Z,2.10
2023-05-04T09:29:13.374Z,2.40
2023-05-04T09:31:45.925Z,2.30
2023-05-04T09:34:15.084Z,2.10
2023-05-04T09:36:44.771Z,2.27
2023-05-04T09:39:13.340Z,2.10
2023-05-04T09:41:44.756Z,2.23
2023-05-04T09:44:21.359Z,1.93
2023-05-04T09:46:57.047Z,2.20
2023-05-04T09:49:32.727Z,2.47
2023-05-04T09:52:03.522Z,2.50
2023-05-04T09:54:35.005Z,2.20
2023-05-04T09:57:10.695Z,2.37
2023-05-04T09:59:39.787Z,2.37
2023-05-04T10:02:18.793Z,3.00
2023-05-04T10:04:51.254Z,2.50
2023-05-04T10:07:21.104Z,2.70
2023-05-04T10:09:51.181Z,2.27
2023-05-04T10:12:19.462Z,2.40
2023-05-04T10:14:47.927Z,3.07
2023-05-04T10:17:26.567Z,2.33
2023-05-04T10:20:07.508Z,2.53
2023-05-04T10:23:11.325Z,2.60
2023-05-04T10:25:56.465Z,2.50
2023-05-04T10:28:37.878Z,2.30
2023-05-04T10:31:06.638Z,2.53
2023-05-04T10:33:40.895Z,2.13
2023-05-04T10:36:09.744Z,2.43
2023-05-04T10:38:41.313Z,2.50
2023-05-04T10:41:16.273Z,2.17
2023-05-04T10:43:48.696Z,2.20
2023-05-04T10:46:21.217Z,2.10
2023-05-04T10:48:49.532Z,2.50
2023-05-04T10:51:21.044Z,2.40
2023-05-04T10:53:50.874Z,2.30
2023-05-04T10:56:23.466Z,2.40
2023-05-04T10:58:52.074Z,2.23
2023-05-04T11:01:21.499Z,2.13
2023-05-04T11:03:50.537Z,2.50
2023-05-04T11:06:23.323Z,2.47
2023-05-04T11:09:02.418Z,2.30
2023-05-04T11:11:31.067Z,2.10
2023-05-04T11:13:59.778Z,1.90
2023-05-04T11:16:28.579Z,2.07
2023-05-04T11:19:07.375Z,1.80
2023-05-04T11:21:35.376Z,2.07
2023-05-04T11:24:05.599Z,2.47
2023-05-04T11:26:34.874Z,2.10
2023-05-04T11:29:13.601Z,2.27
2023-05-04T11:31:41.793Z,2.10
2023-05-04T11:34:09.805Z,2.63
2023-05-04T11:36:39.094Z,2.37
2023-05-04T11:39:09.227Z,2.43
2023-05-04T11:41:38.361Z,2.17
2023-05-04T11:44:08.157Z,2.50
2023-05-04T11:46:36.315Z,2.20
2023-05-04T11:49:05.108Z,2.20
2023-05-04T11:51:33.126Z,2.10
2023-05-04T11:54:02.030Z,2.23
2023-05-04T11:56:41.824Z,1.97
2023-05-04T11:59:10.765Z,2.10
2023-05-04T12:01:39.065Z,2.00
2023-05-04T12:04:07.914Z,1.90
2023-05-04T12:06:36.748Z,2.23
2023-05-04T12:09:06.668Z,2.50
2023-05-04T12:11:38.333Z,2.23
2023-05-04T12:14:09.499Z,2.07
2023-05-04T12:16:38.163Z,2.30
2023-05-04T12:19:07.596Z,2.30
2023-05-04T12:21:36.771Z,2.37
2023-05-04T12:24:06.667Z,2.40
2023-05-04T12:26:36.983Z,2.53
2023-05-04T12:29:05.020Z,2.50
2023-05-04T12:31:33.060Z,2.70
2023-05-04T12:34:01.437Z,2.30
2023-05-04T12:36:29.643Z,2.77
2023-05-04T12:38:57.777Z,2.20
2023-05-04T12:41:25.768Z,2.07
2023-05-04T12:43:55.104Z,2.13
2023-05-04T12:46:23.191Z,2.20
2023-05-04T12:48:51.171Z,2.50
2023-05-04T12:51:19.170Z,2.20
2023-05-04T12:53:47.315Z,2.23
2023-05-04T12:56:15.290Z,2.07
2023-05-04T12:58:43.238Z,2.07
2023-05-04T13:01:12.979Z,2.60
2023-05-04T13:03:41.132Z,2.60
2023-05-04T13:06:09.445Z,2.33
2023-05-04T13:08:37.615Z,2.60
2023-05-04T13:11:05.682Z,2.90
2023-05-04T13:13:34.523Z,2.40
2023-05-04T13:16:03.112Z,2.60
2023-05-04T13:18:32.648Z,2.63
2023-05-04T13:21:00.625Z,2.43
2023-05-04T13:23:28.687Z,2.30
2023-05-04T13:25:56.790Z,2.47
2023-05-04T13:28:24.970Z,2.23
2023-05-04T13:30:53.384Z,2.43
2023-05-04T13:33:29.362Z,2.30
2023-05-04T13:36:02.029Z,2.67
2023-05-04T13:38:30.123Z,2.30
2023-05-04T13:40:58.221Z,2.70
2023-05-04T13:43:26.876Z,2.40
2023-05-04T13:45:56.947Z,2.47
2023-05-04T13:48:26.748Z,2.20
2023-05-04T13:50:55.488Z,2.77
2023-05-04T13:53:25.132Z,2.90
2023-05-04T13:55:53.284Z,2.57
2023-05-04T13:58:21.198Z,2.43
2023-05-04T14:00:49.120Z,2.60
2023-05-04T14:03:17.785Z,2.53
2023-05-04T14:05:45.758Z,2.40
2023-05-04T14:08:14.350Z,2.60
2023-05-04T14:10:43.657Z,2.57
2023-05-04T14:13:11.772Z,2.73
2023-05-04T14:15:39.761Z,2.87
2023-05-04T14:18:07.767Z,2.50
2023-05-04T14:20:35.690Z,2.37
2023-05-04T14:23:03.612Z,2.50
2023-05-04T14:25:31.623Z,2.37
2023-05-04T14:28:01.761Z,2.60
2023-05-04T14:30:29.945Z,2.53
2023-05-04T14:32:58.203Z,2.50
2023-05-04T14:35:26.491Z,2.70
2023-05-04T14:37:54.469Z,2.40
2023-05-04T14:40:22.677Z,2.60
2023-05-04T14:42:50.757Z,2.60
2023-05-04T14:45:20.886Z,2.50
2023-05-04T14:47:49.022Z,2.37
2023-05-04T14:50:17.368Z,2.63
2023-05-04T14:52:45.395Z,2.40
2023-05-04T14:55:13.342Z,2.40
2023-05-04T14:57:42.008Z,2.23
2023-05-04T15:00:11.543Z,2.30
2023-05-04T15:02:41.439Z,2.40
2023-05-04T15:05:12.466Z,2.30
2023-05-04T15:07:40.879Z,2.30
2023-05-04T15:10:10.475Z,2.40
2023-05-04T15:12:40.101Z,2.40
2023-05-04T15:15:09.006Z,2.53
2023-05-04T15:17:37.082Z,2.53
2023-05-04T15:20:07.770Z,2.40
2023-05-04T15:22:36.081Z,2.27
2023-05-04T15:25:04.194Z,2.40
2023-05-04T15:27:32.108Z,2.23
2023-05-04T15:30:00.245Z,1.93
2023-05-04T15:32:28.307Z,2.33
2023-05-04T15:35:04.506Z,2.10
2023-05-04T15:37:35.877Z,2.30
2023-05-04T15:40:04.990Z,2.17
2023-05-04T15:42:33.280Z,2.20
2023-05-04T15:45:01.210Z,2.63
2023-05-04T15:47:29.271Z,2.43
2023-05-04T15:49:57.225Z,1.80
2023-05-04T15:52:25.403Z,1.80
2023-05-04T15:54:54.718Z,1.90
2023-05-04T15:57:22.804Z,2.30
2023-05-04T15:59:50.722Z,1.90
2023-05-04T16:02:18.792Z,1.90
2023-05-04T16:04:47.054Z,1.97
2023-05-04T16:07:15.122Z,2.10
2023-05-04T16:09:43.209Z,1.97
2023-05-04T16:12:12.585Z,2.00
2023-05-04T16:14:41.467Z,2.10
2023-05-04T16:17:09.667Z,2.00
2023-05-04T16:19:37.639Z,1.73
2023-05-04T16:22:05.611Z,1.90
2023-05-04T16:24:36.071Z,1.87
2023-05-04T16:27:04.406Z,2.00
2023-05-04T16:29:33.746Z,2.00
2023-05-04T16:32:03.027Z,2.10
2023-05-04T16:34:31.035Z,2.27
2023-05-04T16:36:58.972Z,2.63
2023-05-04T16:39:31.496Z,9.10
2023-05-04T16:41:59.966Z,3.80
2023-05-04T16:44:27.858Z,2.37
2023-05-04T16:46:57.105Z,2.20
2023-05-04T16:49:25.111Z,2.30
2023-05-04T16:51:55.256Z,1.90
2023-05-04T16:54:24.151Z,4.63
2023-05-04T16:56:52.311Z,17.20
2023-05-04T16:59:20.602Z,16.37
2023-05-04T17:01:48.916Z,14.53
2023-05-04T17:04:18.270Z,8.70
2023-05-04T17:06:46.539Z,4.00
2023-05-04T17:09:14.535Z,5.60
2023-05-04T17:11:42.485Z,10.87
2023-05-04T17:14:10.892Z,7.10
2023-05-04T17:16:39.111Z,2.83
2023-05-04T17:19:08.805Z,4.80
2023-05-04T17:21:40.222Z,3.80
2023-05-04T17:24:08.279Z,6.10
2023-05-04T17:26:36.283Z,14.07
2023-05-04T17:29:04.295Z,14.10
2023-05-04T17:31:32.390Z,16.40
2023-05-04T17:34:00.617Z,17.87
2023-05-04T17:36:31.052Z,20.87
2023-05-04T17:39:00.809Z,14.77
2023-05-04T17:41:28.905Z,15.07
2023-05-04T17:43:58.085Z,18.57
2023-05-04T17:46:27.494Z,82.57
2023-05-04T17:48:56.537Z,261.67
2023-05-04T17:51:24.485Z,363.37
2023-05-04T17:53:52.435Z,201.23
2023-05-04T17:56:21.967Z,134.20
2023-05-04T17:58:50.015Z,92.53
2023-05-04T18:01:41.441Z,56.90
2023-05-04T18:04:32.408Z,50.87
2023-05-04T18:07:20.903Z,49.23
2023-05-04T18:10:05.168Z,27.93
2023-05-04T18:12:49.963Z,30.00
2023-05-04T18:15:22.281Z,23.17
2023-05-04T18:24:41.483Z,22.30
2023-05-04T18:27:11.167Z,15.80
2023-05-04T18:29:40.464Z,12.47
2023-05-04T18:32:10.635Z,13.17
2023-05-04T18:34:38.758Z,13.00
2023-05-04T18:37:07.128Z,11.07
2023-05-04T18:39:35.090Z,9.50
2023-05-04T18:42:03.284Z,8.93
2023-05-04T18:44:31.166Z,8.03
2023-05-04T18:47:00.829Z,8.50
2023-05-04T18:49:28.759Z,8.27
2023-05-04T18:51:56.740Z,10.40
2023-05-04T18:54:24.709Z,7.83
2023-05-04T18:56:52.634Z,8.93
2023-05-04T18:59:20.575Z,8.90
2023-05-04T19:01:50.186Z,7.83
2023-05-04T19:04:19.494Z,8.20
2023-05-04T19:06:51.541Z,6.90
2023-05-04T19:09:19.614Z,5.50
2023-05-04T19:11:47.663Z,5.80
2023-05-04T19:14:16.575Z,5.83
2023-05-04T19:16:44.632Z,5.67
2023-05-04T19:19:12.690Z,5.30
2023-05-04T19:21:42.837Z,4.93
2023-05-04T19:24:11.335Z,4.83
2023-05-04T19:26:39.726Z,5.30
2023-05-04T19:29:07.776Z,4.50
2023-05-04T19:31:35.930Z,4.83
2023-05-04T19:34:04.054Z,4.70
2023-05-04T19:36:32.527Z,5.60
2023-05-04T19:39:01.923Z,5.63
2023-05-04T19:41:29.885Z,6.40
2023-05-04T19:43:58.107Z,7.40
2023-05-04T19:46:26.774Z,6.57
2023-05-04T19:48:54.834Z,5.77
2023-05-04T19:51:22.827Z,5.27
2023-05-04T19:53:50.815Z,5.70
2023-05-04T19:56:20.154Z,5.33
2023-05-04T19:58:48.160Z,6.10
2023-05-04T20:01:16.267Z,6.03
2023-05-04T20:03:44.957Z,6.30
2023-05-04T20:06:13.248Z,6.10
2023-05-04T20:08:41.431Z,5.73
2023-05-04T20:11:09.502Z,5.57
2023-05-04T20:13:38.815Z,5.60
2023-05-04T20:16:07.370Z,6.20
2023-05-04T20:18:35.656Z,5.53
2023-05-04T20:21:03.776Z,5.43
2023-05-04T20:23:31.756Z,5.57
2023-05-04T20:25:59.706Z,5.70
2023-05-04T20:28:27.703Z,5.70
2023-05-04T20:30:57.291Z,5.90
2023-05-04T20:33:25.370Z,6.00
2023-05-04T20:35:53.330Z,5.73
2023-05-04T20:38:21.301Z,5.93
2023-05-04T20:40:50.475Z,5.70
2023-05-04T20:43:20.533Z,5.77
2023-05-04T20:45:48.513Z,6.00
2023-05-04T20:48:18.085Z,6.00
2023-05-04T20:50:46.064Z,7.30
2023-05-04T20:53:14.080Z,7.03
2023-05-04T20:55:43.475Z,6.80
2023-05-04T20:58:11.554Z,7.93
2023-05-04T21:00:40.069Z,7.53
2023-05-04T21:03:08.212Z,8.50
2023-05-04T21:05:40.587Z,8.57
2023-05-04T21:08:08.551Z,7.83
2023-05-04T21:10:36.842Z,7.23
2023-05-04T21:13:05.001Z,7.80
2023-05-04T21:15:33.045Z,7.27
2023-05-04T21:18:00.997Z,6.93
2023-05-04T21:20:29.006Z,7.20
2023-05-04T21:22:58.565Z,7.03
2023-05-04T21:25:26.746Z,7.23
2023-05-04T21:27:54.655Z,7.67
2023-05-04T21:30:22.788Z,7.30
2023-05-04T21:32:51.037Z,7.40
2023-05-04T21:35:21.133Z,8.93
2023-05-04T21:37:49.251Z,9.17
2023-05-04T21:40:18.775Z,8.90
2023-05-04T21:42:46.695Z,8.80
2023-05-04T21:45:14.944Z,8.10
2023-05-04T21:47:42.902Z,8.20
2023-05-04T21:50:11.444Z,7.63
2023-05-04T21:52:39.430Z,8.03
2023-05-04T21:55:08.236Z,8.50
2023-05-04T21:57:38.014Z,7.77
2023-05-04T22:00:13.948Z,10.00
2023-05-04T22:02:42.097Z,10.43
2023-05-04T22:05:11.528Z,9.27
2023-05-04T22:07:39.651Z,9.97
2023-05-04T22:10:09.103Z,10.60
2023-05-04T22:12:38.600Z,10.43
2023-05-04T22:15:07.775Z,10.00
2023-05-04T22:17:35.759Z,9.87
2023-05-04T22:20:03.750Z,10.50
2023-05-04T22:22:31.690Z,9.53
2023-05-04T22:24:59.695Z,8.47
2023-05-04T22:27:27.651Z,8.00
2023-05-04T22:29:57.087Z,9.33
2023-05-04T22:32:25.077Z,8.97
2023-05-04T22:34:53.046Z,8.83
2023-05-04T22:37:22.293Z,8.40
2023-05-04T22:39:50.185Z,8.53
2023-05-04T22:42:18.155Z,8.00
2023-05-04T22:44:46.168Z,8.10
2023-05-04T22:47:15.499Z,7.30
2023-05-04T22:49:44.109Z,7.73
2023-05-04T22:52:12.555Z,7.90
2023-05-04T22:54:40.827Z,8.50
2023-05-04T22:57:08.743Z,7.93
2023-05-04T22:59:36.685Z,8.77
2023-05-04T23:02:05.312Z,9.00
2023-05-04T23:04:34.677Z,8.80
2023-05-04T23:07:02.615Z,7.83
2023-05-04T23:09:30.574Z,7.80
2023-05-04T23:11:58.865Z,7.90
2023-05-04T23:14:26.838Z,7.63
2023-05-04T23:16:54.733Z,7.30
2023-05-04T23:19:22.622Z,7.23
2023-05-04T23:21:51.967Z,6.83
2023-05-04T23:24:19.864Z,6.90
2023-05-04T23:26:47.737Z,6.70
2023-05-04T23:29:15.765Z,7.00
2023-05-04T23:31:43.717Z,7.17
2023-05-04T23:34:11.661Z,6.60
2023-05-04T23:36:39.619Z,7.30
2023-05-04T23:39:09.202Z,6.60
2023-05-04T23:41:37.121Z,7.53
2023-05-04T23:44:05.085Z,7.03
2023-05-04T23:46:33.069Z,7.40
2023-05-04T23:49:01.205Z,7.40
2023-05-04T23:51:29.499Z,7.60
2023-05-04T23:53:57.651Z,7.30
2023-05-04T23:56:27.365Z,7.80
2023-05-04T23:58:55.478Z,7.80
